Observations météo à Mazinghem


Heure loc. TempératurePoint de roséeHumiditéVent (km/h)PressionPrécips.Rayonnement solaireIndice UVHumidexWindchill
moy.raf.dir.
03:05-1.6 °C-2.4 °C94 %0.0 1.6 ---1009.1 hPa0.0 mm0.0 W/m²0.0 ------
03:00-1.4 °C-2.2 °C94 %3.2 3.2 1009.1 hPa0.0 mm0.0 W/m²0.0 ------
02:55-1.3 °C-2.1 °C94 %1.6 3.2 1009.1 hPa0.0 mm0.0 W/m²0.0 ------
02:50-1.2 °C-2.0 °C94 %1.6 1.6 1009.1 hPa0.0 mm0.0 W/m²0.0 ------
02:45-1.1 °C-1.9 °C94 %3.2 3.2 1009.0 hPa0.0 mm0.0 W/m²0.0 ------
02:40-1.0 °C-1.8 °C94 %3.2 3.2 1008.9 hPa0.0 mm0.0 W/m²0.0 ------
02:35-0.8 °C-1.7 °C94 %3.2 3.2 1009.0 hPa0.0 mm0.0 W/m²0.0 ------
02:30-0.7 °C-1.5 °C94 %4.8 6.4 1008.8 hPa0.0 mm0.0 W/m²0.0 ----2.2 °C
02:25-0.5 °C-1.3 °C94 %4.8 6.4 1008.8 hPa0.0 mm0.0 W/m²0.0 ----2.1 °C
02:20-0.4 °C-1.3 °C94 %4.8 8.0 1008.8 hPa0.0 mm0.0 W/m²0.0 ----2.0 °C
02:15-0.4 °C-1.2 °C94 %3.2 4.8 1008.8 hPa0.0 mm0.0 W/m²0.0 ----0.4 °C
02:10-0.4 °C-1.2 °C94 %3.2 3.2 1008.8 hPa0.0 mm0.0 W/m²0.0 ------
02:05-0.4 °C-1.2 °C94 %3.2 4.8 1008.7 hPa0.0 mm0.0 W/m²0.0 ----0.4 °C
02:00-0.5 °C-1.3 °C94 %3.2 3.2 1008.8 hPa0.0 mm0.0 W/m²0.0 ------
01:55-0.6 °C-1.4 °C94 %3.2 4.8 1008.7 hPa0.0 mm0.0 W/m²0.0 ----0.6 °C
01:50-0.6 °C-1.4 °C94 %1.6 3.2 1008.6 hPa0.0 mm0.0 W/m²0.0 ------
01:45-0.6 °C-1.4 °C94 %0.0 1.6 ---1008.6 hPa0.0 mm0.0 W/m²0.0 ------
01:40-0.7 °C-1.6 °C94 %1.6 1.6 1008.6 hPa0.0 mm0.0 W/m²0.0 ------
01:35-0.7 °C-1.6 °C94 %1.6 1.6 1008.6 hPa0.0 mm0.0 W/m²0.0 ------
01:30-0.8 °C-1.7 °C94 %0.0 0.0 ---1008.5 hPa0.0 mm0.0 W/m²0.0 ------
01:25-0.9 °C-1.8 °C94 %0.0 1.6 ---1008.5 hPa0.0 mm0.0 W/m²0.0 ------
01:20-0.9 °C-1.8 °C94 %0.0 1.6 ---1008.4 hPa0.0 mm0.0 W/m²0.0 ------
01:15-0.9 °C-1.8 °C94 %0.0 1.6 ---1008.4 hPa0.0 mm0.0 W/m²0.0 ------
01:10-1.0 °C-1.8 °C94 %0.0 0.0 ---1008.5 hPa0.0 mm0.0 W/m²0.0 ------
01:05-1.1 °C-1.9 °C94 %0.0 1.6 ---1008.5 hPa0.0 mm0.0 W/m²0.0 ------
01:00-1.2 °C-2.1 °C94 %1.6 3.2 1008.6 hPa0.0 mm0.0 W/m²0.0 ------
00:55-1.3 °C-2.2 °C94 %0.0 1.6 ---1008.7 hPa0.0 mm0.0 W/m²0.0 ------
00:50-1.6 °C-2.4 °C94 %3.2 4.8 1008.5 hPa0.0 mm0.0 W/m²0.0 ----1.6 °C
00:45-1.8 °C-2.7 °C94 %3.2 3.2 1008.5 hPa0.0 mm0.0 W/m²0.0 ------
00:40-2.1 °C-3.1 °C93 %3.2 3.2 1008.5 hPa0.0 mm0.0 W/m²0.0 ------
00:35-2.2 °C-3.2 °C93 %3.2 3.2 1008.4 hPa0.0 mm0.0 W/m²0.0 ------
00:30-2.1 °C-3.1 °C93 %0.0 1.6 ---1008.4 hPa0.0 mm0.0 W/m²0.0 ------
00:25-2.1 °C-3.1 °C93 %1.6 1.6 1008.4 hPa0.0 mm0.0 W/m²0.0 ------
00:20-2.1 °C-2.9 °C94 %1.6 3.2 1008.4 hPa0.0 mm0.0 W/m²0.0 ------
00:15-2.4 °C-3.4 °C93 %1.6 1.6 1008.3 hPa0.0 mm0.0 W/m²0.0 ------
00:10-2.5 °C-3.5 °C93 %0.0 1.6 ---1008.3 hPa0.0 mm0.0 W/m²0.0 ------
00:05-2.6 °C-3.6 °C93 %0.0 1.6 ---1008.4 hPa0.0 mm0.0 W/m²0.0 ------
00:00-2.4 °C-3.4 °C93 %0.0 1.6 ---1008.3 hPa0.0 mm0.0 W/m²0.0 ------

Dernier relevé - 10/12/2022 03:05


  Température
-1.6 °C
  Point de rosée
-2.4 °C
  Humidité
94 %
  Vent moyen
0.0 km/h
  Vent rafale
1.6 km/h
  Pression
1009.1 hPa
  Pluie depuis le dernier relevé
0.0 mm
  Rayonnement solaire
0.0 W/m²
  Indice UV
0.0


Extremums du jour


  Température
Min. -2.6°C à 00:05 loc.
Max. -0.4°C à 02:05 loc.
  Vent
Max. 8.0km/h à 02:20 loc.
  Précipitations
Aujourd'hui 0.0mm

Coordonnées: lat 50.602, lon 2.40525

Altitude: 30m

Catégorie: Amateur

Station Vantage Pro 2

Fréquence d'actualisation 5m